sensor_id;sensor_type;location;lat;lon;timestamp;P1;durP1;ratioP1;P2;durP2;ratioP2
34978;SDS011;21185;50.978;13.720;2023-04-06T00:02:29;3.50;;;1.85;;
34978;SDS011;21185;50.978;13.720;2023-04-06T00:07:31;3.00;;;2.08;;
34978;SDS011;21185;50.978;13.720;2023-04-06T00:12:34;4.60;;;2.00;;
34978;SDS011;21185;50.978;13.720;2023-04-06T00:17:36;5.20;;;2.00;;
34978;SDS011;21185;50.978;13.720;2023-04-06T00:22:38;2.55;;;2.15;;
34978;SDS011;21185;50.978;13.720;2023-04-06T00:27:40;8.15;;;2.38;;
34978;SDS011;21185;50.978;13.720;2023-04-06T00:32:43;4.78;;;2.10;;
34978;SDS011;21185;50.978;13.720;2023-04-06T00:37:46;5.43;;;1.90;;
34978;SDS011;21185;50.978;13.720;2023-04-06T00:42:49;6.82;;;2.17;;
34978;SDS011;21185;50.978;13.720;2023-04-06T00:47:51;2.85;;;1.90;;
34978;SDS011;21185;50.978;13.720;2023-04-06T00:52:54;3.80;;;1.92;;
34978;SDS011;21185;50.978;13.720;2023-04-06T00:58:00;3.97;;;2.45;;
34978;SDS011;21185;50.978;13.720;2023-04-06T01:03:08;3.42;;;1.90;;
34978;SDS011;21185;50.978;13.720;2023-04-06T01:08:15;5.32;;;2.10;;
34978;SDS011;21185;50.978;13.720;2023-04-06T01:13:17;4.10;;;2.30;;
34978;SDS011;21185;50.978;13.720;2023-04-06T01:18:28;3.07;;;1.80;;
34978;SDS011;21185;50.978;13.720;2023-04-06T01:23:50;6.22;;;2.63;;
34978;SDS011;21185;50.978;13.720;2023-04-06T01:29:00;10.00;;;3.40;;
34978;SDS011;21185;50.978;13.720;2023-04-06T01:34:04;5.30;;;2.90;;
34978;SDS011;21185;50.978;13.720;2023-04-06T01:39:07;4.78;;;2.10;;
34978;SDS011;21185;50.978;13.720;2023-04-06T01:44:15;4.05;;;2.47;;
34978;SDS011;21185;50.978;13.720;2023-04-06T01:49:20;5.10;;;2.28;;
34978;SDS011;21185;50.978;13.720;2023-04-06T01:54:27;6.05;;;2.45;;
34978;SDS011;21185;50.978;13.720;2023-04-06T01:59:52;3.13;;;1.92;;
34978;SDS011;21185;50.978;13.720;2023-04-06T02:05:14;4.63;;;2.35;;
34978;SDS011;21185;50.978;13.720;2023-04-06T02:10:17;3.90;;;2.20;;
34978;SDS011;21185;50.978;13.720;2023-04-06T02:15:19;4.68;;;2.10;;
34978;SDS011;21185;50.978;13.720;2023-04-06T02:20:21;7.63;;;2.10;;
34978;SDS011;21185;50.978;13.720;2023-04-06T02:25:24;3.33;;;2.10;;
34978;SDS011;21185;50.978;13.720;2023-04-06T02:30:26;2.65;;;1.73;;
34978;SDS011;21185;50.978;13.720;2023-04-06T02:35:29;5.32;;;2.70;;
34978;SDS011;21185;50.978;13.720;2023-04-06T02:40:32;3.63;;;1.92;;
34978;SDS011;21185;50.978;13.720;2023-04-06T02:45:43;3.65;;;1.83;;
34978;SDS011;21185;50.978;13.720;2023-04-06T02:50:46;5.70;;;2.55;;
34978;SDS011;21185;50.978;13.720;2023-04-06T02:55:48;4.10;;;2.30;;
34978;SDS011;21185;50.978;13.720;2023-04-06T03:00:50;2.90;;;1.98;;
34978;SDS011;21185;50.978;13.720;2023-04-06T03:05:52;4.20;;;2.17;;
34978;SDS011;21185;50.978;13.720;2023-04-06T03:11:01;5.07;;;1.90;;
34978;SDS011;21185;50.978;13.720;2023-04-06T03:16:10;4.82;;;2.55;;
34978;SDS011;21185;50.978;13.720;2023-04-06T03:21:14;2.83;;;2.20;;
34978;SDS011;21185;50.978;13.720;2023-04-06T03:26:23;4.75;;;2.78;;
34978;SDS011;21185;50.978;13.720;2023-04-06T03:31:26;6.63;;;2.40;;
34978;SDS011;21185;50.978;13.720;2023-04-06T03:36:34;5.30;;;2.40;;
34978;SDS011;21185;50.978;13.720;2023-04-06T03:41:38;3.95;;;2.33;;
34978;SDS011;21185;50.978;13.720;2023-04-06T03:46:51;4.50;;;2.35;;
34978;SDS011;21185;50.978;13.720;2023-04-06T03:51:56;7.22;;;2.55;;
34978;SDS011;21185;50.978;13.720;2023-04-06T03:56:58;5.38;;;2.85;;
34978;SDS011;21185;50.978;13.720;2023-04-06T04:02:02;5.15;;;2.90;;
34978;SDS011;21185;50.978;13.720;2023-04-06T04:07:04;2.78;;;1.80;;
34978;SDS011;21185;50.978;13.720;2023-04-06T04:12:06;5.68;;;2.72;;
34978;SDS011;21185;50.978;13.720;2023-04-06T04:17:09;10.05;;;3.95;;
34978;SDS011;21185;50.978;13.720;2023-04-06T04:22:11;11.32;;;4.95;;
34978;SDS011;21185;50.978;13.720;2023-04-06T04:27:15;6.03;;;3.80;;
34978;SDS011;21185;50.978;13.720;2023-04-06T04:32:17;5.68;;;2.85;;
34978;SDS011;21185;50.978;13.720;2023-04-06T04:37:20;4.43;;;2.70;;
34978;SDS011;21185;50.978;13.720;2023-04-06T04:42:27;3.92;;;2.10;;
34978;SDS011;21185;50.978;13.720;2023-04-06T04:47:32;4.50;;;2.22;;
34978;SDS011;21185;50.978;13.720;2023-04-06T04:52:34;11.10;;;3.08;;
34978;SDS011;21185;50.978;13.720;2023-04-06T04:57:55;4.22;;;2.50;;
34978;SDS011;21185;50.978;13.720;2023-04-06T05:03:18;7.45;;;2.78;;
34978;SDS011;21185;50.978;13.720;2023-04-06T05:08:31;4.18;;;2.50;;
34978;SDS011;21185;50.978;13.720;2023-04-06T05:13:34;7.75;;;3.10;;
34978;SDS011;21185;50.978;13.720;2023-04-06T05:23:44;13.45;;;5.88;;
34978;SDS011;21185;50.978;13.720;2023-04-06T05:28:46;11.70;;;4.97;;
34978;SDS011;21185;50.978;13.720;2023-04-06T05:33:50;13.85;;;5.20;;
34978;SDS011;21185;50.978;13.720;2023-04-06T05:39:03;14.18;;;5.28;;
34978;SDS011;21185;50.978;13.720;2023-04-06T05:44:14;16.58;;;5.63;;
34978;SDS011;21185;50.978;13.720;2023-04-06T05:49:20;14.77;;;5.90;;
34978;SDS011;21185;50.978;13.720;2023-04-06T05:54:22;8.23;;;4.32;;
34978;SDS011;21185;50.978;13.720;2023-04-06T05:59:30;18.50;;;5.18;;
34978;SDS011;21185;50.978;13.720;2023-04-06T06:04:33;9.70;;;4.43;;
34978;SDS011;21185;50.978;13.720;2023-04-06T06:09:36;9.88;;;4.57;;
34978;SDS011;21185;50.978;13.720;2023-04-06T06:15:00;7.57;;;3.42;;
34978;SDS011;21185;50.978;13.720;2023-04-06T06:20:09;7.30;;;3.88;;
34978;SDS011;21185;50.978;13.720;2023-04-06T06:25:15;9.48;;;4.05;;
34978;SDS011;21185;50.978;13.720;2023-04-06T06:35:25;6.75;;;3.58;;
34978;SDS011;21185;50.978;13.720;2023-04-06T06:40:27;8.30;;;4.30;;
34978;SDS011;21185;50.978;13.720;2023-04-06T06:45:30;7.93;;;4.28;;
34978;SDS011;21185;50.978;13.720;2023-04-06T06:50:33;7.75;;;3.60;;
34978;SDS011;21185;50.978;13.720;2023-04-06T06:55:35;10.15;;;3.90;;
34978;SDS011;21185;50.978;13.720;2023-04-06T07:00:37;10.82;;;3.83;;
34978;SDS011;21185;50.978;13.720;2023-04-06T07:05:47;8.00;;;3.53;;
34978;SDS011;21185;50.978;13.720;2023-04-06T07:10:56;9.20;;;3.83;;
34978;SDS011;21185;50.978;13.720;2023-04-06T07:15:59;6.97;;;4.22;;
34978;SDS011;21185;50.978;13.720;2023-04-06T07:21:02;6.22;;;4.38;;
34978;SDS011;21185;50.978;13.720;2023-04-06T07:26:04;9.00;;;3.85;;
34978;SDS011;21185;50.978;13.720;2023-04-06T07:31:06;9.13;;;3.83;;
34978;SDS011;21185;50.978;13.720;2023-04-06T07:36:09;6.35;;;4.10;;
34978;SDS011;21185;50.978;13.720;2023-04-06T07:41:11;7.28;;;3.80;;
34978;SDS011;21185;50.978;13.720;2023-04-06T07:46:13;6.93;;;3.75;;
34978;SDS011;21185;50.978;13.720;2023-04-06T07:51:15;6.40;;;3.78;;
34978;SDS011;21185;50.978;13.720;2023-04-06T07:56:20;12.88;;;4.22;;
34978;SDS011;21185;50.978;13.720;2023-04-06T08:01:22;9.30;;;3.80;;
34978;SDS011;21185;50.978;13.720;2023-04-06T08:06:25;9.18;;;4.90;;
34978;SDS011;21185;50.978;13.720;2023-04-06T08:11:27;11.23;;;4.32;;
34978;SDS011;21185;50.978;13.720;2023-04-06T08:16:29;6.63;;;4.15;;
34978;SDS011;21185;50.978;13.720;2023-04-06T08:21:32;6.88;;;3.63;;
34978;SDS011;21185;50.978;13.720;2023-04-06T08:26:34;7.72;;;3.75;;
34978;SDS011;21185;50.978;13.720;2023-04-06T08:31:36;6.10;;;3.47;;
34978;SDS011;21185;50.978;13.720;2023-04-06T08:36:39;7.03;;;3.15;;
34978;SDS011;21185;50.978;13.720;2023-04-06T08:41:44;12.68;;;4.57;;
34978;SDS011;21185;50.978;13.720;2023-04-06T08:46:46;7.55;;;4.00;;
34978;SDS011;21185;50.978;13.720;2023-04-06T08:51:49;10.43;;;3.88;;
34978;SDS011;21185;50.978;13.720;2023-04-06T08:56:51;6.78;;;3.85;;
34978;SDS011;21185;50.978;13.720;2023-04-06T09:01:55;5.25;;;3.78;;
34978;SDS011;21185;50.978;13.720;2023-04-06T09:06:57;6.70;;;4.05;;
34978;SDS011;21185;50.978;13.720;2023-04-06T09:11:59;8.40;;;3.60;;
34978;SDS011;21185;50.978;13.720;2023-04-06T09:17:07;7.28;;;3.75;;
34978;SDS011;21185;50.978;13.720;2023-04-06T09:22:09;6.18;;;3.72;;
34978;SDS011;21185;50.978;13.720;2023-04-06T09:27:11;6.13;;;3.50;;
34978;SDS011;21185;50.978;13.720;2023-04-06T09:32:14;5.35;;;3.55;;
34978;SDS011;21185;50.978;13.720;2023-04-06T09:37:18;4.85;;;3.22;;
34978;SDS011;21185;50.978;13.720;2023-04-06T09:42:24;6.70;;;3.97;;
34978;SDS011;21185;50.978;13.720;2023-04-06T09:47:32;7.95;;;3.13;;
34978;SDS011;21185;50.978;13.720;2023-04-06T09:52:38;5.97;;;3.00;;
34978;SDS011;21185;50.978;13.720;2023-04-06T10:03:09;4.53;;;2.90;;
34978;SDS011;21185;50.978;13.720;2023-04-06T10:08:22;9.50;;;3.13;;
34978;SDS011;21185;50.978;13.720;2023-04-06T10:13:33;5.13;;;3.00;;
34978;SDS011;21185;50.978;13.720;2023-04-06T10:18:35;6.63;;;3.53;;
34978;SDS011;21185;50.978;13.720;2023-04-06T10:23:51;5.55;;;3.30;;
34978;SDS011;21185;50.978;13.720;2023-04-06T10:29:01;5.10;;;2.83;;
34978;SDS011;21185;50.978;13.720;2023-04-06T10:34:06;6.10;;;3.15;;
34978;SDS011;21185;50.978;13.720;2023-04-06T10:39:08;10.93;;;3.30;;
34978;SDS011;21185;50.978;13.720;2023-04-06T10:44:17;5.82;;;2.92;;
34978;SDS011;21185;50.978;13.720;2023-04-06T10:49:24;12.50;;;3.40;;
34978;SDS011;21185;50.978;13.720;2023-04-06T10:54:28;6.03;;;3.33;;
34978;SDS011;21185;50.978;13.720;2023-04-06T10:59:30;5.68;;;2.88;;
34978;SDS011;21185;50.978;13.720;2023-04-06T11:04:33;7.85;;;3.25;;
34978;SDS011;21185;50.978;13.720;2023-04-06T11:09:35;9.30;;;4.00;;
34978;SDS011;21185;50.978;13.720;2023-04-06T11:14:38;7.03;;;3.45;;
34978;SDS011;21185;50.978;13.720;2023-04-06T11:19:40;5.70;;;3.53;;
34978;SDS011;21185;50.978;13.720;2023-04-06T11:24:43;11.27;;;3.63;;
34978;SDS011;21185;50.978;13.720;2023-04-06T11:29:44;6.05;;;3.20;;
34978;SDS011;21185;50.978;13.720;2023-04-06T11:34:51;7.85;;;3.00;;
34978;SDS011;21185;50.978;13.720;2023-04-06T11:39:54;4.55;;;3.13;;
34978;SDS011;21185;50.978;13.720;2023-04-06T11:44:57;5.22;;;3.25;;
34978;SDS011;21185;50.978;13.720;2023-04-06T11:50:09;6.35;;;3.28;;
34978;SDS011;21185;50.978;13.720;2023-04-06T11:55:13;7.13;;;3.70;;
34978;SDS011;21185;50.978;13.720;2023-04-06T12:00:17;5.57;;;3.25;;
34978;SDS011;21185;50.978;13.720;2023-04-06T12:05:19;5.00;;;2.85;;
34978;SDS011;21185;50.978;13.720;2023-04-06T12:10:21;6.43;;;3.50;;
34978;SDS011;21185;50.978;13.720;2023-04-06T12:15:26;5.53;;;2.80;;
34978;SDS011;21185;50.978;13.720;2023-04-06T12:20:28;4.30;;;3.10;;
34978;SDS011;21185;50.978;13.720;2023-04-06T12:25:32;5.45;;;3.47;;
34978;SDS011;21185;50.978;13.720;2023-04-06T12:30:34;4.60;;;3.20;;
34978;SDS011;21185;50.978;13.720;2023-04-06T12:35:36;3.35;;;2.90;;
34978;SDS011;21185;50.978;13.720;2023-04-06T12:40:38;4.47;;;3.10;;
34978;SDS011;21185;50.978;13.720;2023-04-06T12:45:41;7.95;;;3.42;;
34978;SDS011;21185;50.978;13.720;2023-04-06T12:50:43;7.18;;;4.30;;
34978;SDS011;21185;50.978;13.720;2023-04-06T12:55:45;4.57;;;3.10;;
34978;SDS011;21185;50.978;13.720;2023-04-06T13:00:47;4.53;;;3.03;;
34978;SDS011;21185;50.978;13.720;2023-04-06T13:05:50;6.95;;;3.42;;
34978;SDS011;21185;50.978;13.720;2023-04-06T13:10:52;3.63;;;3.05;;
34978;SDS011;21185;50.978;13.720;2023-04-06T13:16:00;7.57;;;3.63;;
34978;SDS011;21185;50.978;13.720;2023-04-06T13:21:04;7.68;;;4.05;;
34978;SDS011;21185;50.978;13.720;2023-04-06T13:26:07;4.65;;;3.30;;
34978;SDS011;21185;50.978;13.720;2023-04-06T13:31:09;5.78;;;3.83;;
34978;SDS011;21185;50.978;13.720;2023-04-06T13:36:11;6.60;;;3.95;;
34978;SDS011;21185;50.978;13.720;2023-04-06T13:41:19;8.77;;;4.75;;
34978;SDS011;21185;50.978;13.720;2023-04-06T13:46:23;5.13;;;3.22;;
34978;SDS011;21185;50.978;13.720;2023-04-06T13:51:25;5.85;;;3.55;;
34978;SDS011;21185;50.978;13.720;2023-04-06T13:56:31;6.05;;;3.25;;
34978;SDS011;21185;50.978;13.720;2023-04-06T14:01:33;7.72;;;3.42;;
34978;SDS011;21185;50.978;13.720;2023-04-06T14:06:35;6.55;;;3.85;;
34978;SDS011;21185;50.978;13.720;2023-04-06T14:11:37;5.43;;;3.35;;
34978;SDS011;21185;50.978;13.720;2023-04-06T14:16:39;5.93;;;3.70;;
34978;SDS011;21185;50.978;13.720;2023-04-06T14:21:42;7.30;;;3.42;;
34978;SDS011;21185;50.978;13.720;2023-04-06T14:26:45;4.55;;;3.28;;
34978;SDS011;21185;50.978;13.720;2023-04-06T14:31:47;4.88;;;3.35;;
34978;SDS011;21185;50.978;13.720;2023-04-06T14:36:49;5.18;;;3.00;;
34978;SDS011;21185;50.978;13.720;2023-04-06T14:41:51;6.90;;;3.55;;
34978;SDS011;21185;50.978;13.720;2023-04-06T14:46:53;4.95;;;3.38;;
34978;SDS011;21185;50.978;13.720;2023-04-06T14:51:55;7.10;;;3.65;;
34978;SDS011;21185;50.978;13.720;2023-04-06T14:56:57;21.63;;;8.13;;
34978;SDS011;21185;50.978;13.720;2023-04-06T15:02:00;9.25;;;4.28;;
34978;SDS011;21185;50.978;13.720;2023-04-06T15:07:03;6.80;;;4.10;;
34978;SDS011;21185;50.978;13.720;2023-04-06T15:12:05;7.13;;;3.65;;
34978;SDS011;21185;50.978;13.720;2023-04-06T15:17:07;7.22;;;3.22;;
34978;SDS011;21185;50.978;13.720;2023-04-06T15:22:10;4.05;;;2.83;;
34978;SDS011;21185;50.978;13.720;2023-04-06T15:27:12;4.93;;;3.20;;
34978;SDS011;21185;50.978;13.720;2023-04-06T15:32:14;4.45;;;3.05;;
34978;SDS011;21185;50.978;13.720;2023-04-06T15:37:16;4.90;;;2.90;;
34978;SDS011;21185;50.978;13.720;2023-04-06T15:42:18;4.88;;;2.90;;
34978;SDS011;21185;50.978;13.720;2023-04-06T15:47:20;5.15;;;2.72;;
34978;SDS011;21185;50.978;13.720;2023-04-06T15:52:22;8.80;;;2.80;;
34978;SDS011;21185;50.978;13.720;2023-04-06T15:57:24;5.43;;;3.30;;
34978;SDS011;21185;50.978;13.720;2023-04-06T16:02:26;6.80;;;3.33;;
34978;SDS011;21185;50.978;13.720;2023-04-06T16:07:29;4.40;;;3.00;;
34978;SDS011;21185;50.978;13.720;2023-04-06T16:12:32;6.95;;;3.33;;
34978;SDS011;21185;50.978;13.720;2023-04-06T16:17:34;8.27;;;3.22;;
34978;SDS011;21185;50.978;13.720;2023-04-06T16:22:36;3.30;;;2.20;;
34978;SDS011;21185;50.978;13.720;2023-04-06T16:27:38;8.40;;;3.75;;
34978;SDS011;21185;50.978;13.720;2023-04-06T16:32:40;8.50;;;3.58;;
34978;SDS011;21185;50.978;13.720;2023-04-06T16:37:44;5.80;;;2.85;;
34978;SDS011;21185;50.978;13.720;2023-04-06T16:42:47;6.32;;;3.55;;
34978;SDS011;21185;50.978;13.720;2023-04-06T16:47:48;7.93;;;3.13;;
34978;SDS011;21185;50.978;13.720;2023-04-06T16:52:51;12.82;;;4.15;;
34978;SDS011;21185;50.978;13.720;2023-04-06T16:57:54;9.32;;;4.15;;
34978;SDS011;21185;50.978;13.720;2023-04-06T17:02:56;6.07;;;2.80;;
34978;SDS011;21185;50.978;13.720;2023-04-06T17:07:58;6.45;;;3.17;;
34978;SDS011;21185;50.978;13.720;2023-04-06T17:13:00;6.30;;;3.05;;
34978;SDS011;21185;50.978;13.720;2023-04-06T17:18:02;5.15;;;3.17;;
34978;SDS011;21185;50.978;13.720;2023-04-06T17:23:04;4.47;;;2.50;;
34978;SDS011;21185;50.978;13.720;2023-04-06T17:28:06;4.28;;;2.88;;
34978;SDS011;21185;50.978;13.720;2023-04-06T17:33:08;4.88;;;2.65;;
34978;SDS011;21185;50.978;13.720;2023-04-06T17:38:10;4.68;;;2.45;;
34978;SDS011;21185;50.978;13.720;2023-04-06T17:43:12;4.95;;;2.95;;
34978;SDS011;21185;50.978;13.720;2023-04-06T17:48:14;5.10;;;2.90;;
34978;SDS011;21185;50.978;13.720;2023-04-06T17:53:16;6.60;;;3.42;;
34978;SDS011;21185;50.978;13.720;2023-04-06T17:58:20;4.93;;;3.35;;
34978;SDS011;21185;50.978;13.720;2023-04-06T18:03:23;6.57;;;3.70;;
34978;SDS011;21185;50.978;13.720;2023-04-06T18:08:25;9.82;;;4.10;;
34978;SDS011;21185;50.978;13.720;2023-04-06T18:13:26;7.40;;;4.07;;
34978;SDS011;21185;50.978;13.720;2023-04-06T18:18:28;6.53;;;3.83;;
34978;SDS011;21185;50.978;13.720;2023-04-06T18:23:32;6.05;;;4.00;;
34978;SDS011;21185;50.978;13.720;2023-04-06T18:28:35;6.47;;;4.03;;
34978;SDS011;21185;50.978;13.720;2023-04-06T18:33:37;7.78;;;3.80;;
34978;SDS011;21185;50.978;13.720;2023-04-06T18:38:41;6.55;;;4.13;;
34978;SDS011;21185;50.978;13.720;2023-04-06T18:43:49;7.47;;;4.38;;
34978;SDS011;21185;50.978;13.720;2023-04-06T18:48:51;6.35;;;3.83;;
34978;SDS011;21185;50.978;13.720;2023-04-06T18:53:53;7.38;;;4.55;;
34978;SDS011;21185;50.978;13.720;2023-04-06T18:58:55;9.77;;;5.32;;
34978;SDS011;21185;50.978;13.720;2023-04-06T19:03:57;8.93;;;4.30;;
34978;SDS011;21185;50.978;13.720;2023-04-06T19:09:01;8.07;;;4.65;;
34978;SDS011;21185;50.978;13.720;2023-04-06T19:14:05;8.43;;;4.28;;
34978;SDS011;21185;50.978;13.720;2023-04-06T19:19:07;8.35;;;4.88;;
34978;SDS011;21185;50.978;13.720;2023-04-06T19:24:10;8.40;;;4.85;;
34978;SDS011;21185;50.978;13.720;2023-04-06T19:29:12;8.48;;;5.15;;
34978;SDS011;21185;50.978;13.720;2023-04-06T19:34:14;7.35;;;5.20;;
34978;SDS011;21185;50.978;13.720;2023-04-06T19:39:18;7.05;;;4.53;;
34978;SDS011;21185;50.978;13.720;2023-04-06T19:44:20;8.95;;;4.72;;
34978;SDS011;21185;50.978;13.720;2023-04-06T19:49:22;8.85;;;5.10;;
34978;SDS011;21185;50.978;13.720;2023-04-06T19:54:24;13.75;;;5.38;;
34978;SDS011;21185;50.978;13.720;2023-04-06T19:59:26;8.75;;;5.32;;
34978;SDS011;21185;50.978;13.720;2023-04-06T20:04:28;9.30;;;5.70;;
34978;SDS011;21185;50.978;13.720;2023-04-06T20:09:30;10.65;;;5.47;;
34978;SDS011;21185;50.978;13.720;2023-04-06T20:14:32;8.55;;;5.53;;
34978;SDS011;21185;50.978;13.720;2023-04-06T20:19:34;10.20;;;6.93;;
34978;SDS011;21185;50.978;13.720;2023-04-06T20:24:36;8.80;;;6.20;;
34978;SDS011;21185;50.978;13.720;2023-04-06T20:29:38;13.30;;;6.18;;
34978;SDS011;21185;50.978;13.720;2023-04-06T20:34:40;11.07;;;6.88;;
34978;SDS011;21185;50.978;13.720;2023-04-06T20:39:42;14.60;;;6.78;;
34978;SDS011;21185;50.978;13.720;2023-04-06T20:44:44;10.55;;;7.05;;
34978;SDS011;21185;50.978;13.720;2023-04-06T20:49:47;10.02;;;5.90;;
34978;SDS011;21185;50.978;13.720;2023-04-06T20:54:49;14.30;;;7.45;;
34978;SDS011;21185;50.978;13.720;2023-04-06T20:59:51;8.40;;;5.50;;
34978;SDS011;21185;50.978;13.720;2023-04-06T21:04:53;12.45;;;6.53;;
34978;SDS011;21185;50.978;13.720;2023-04-06T21:09:55;10.30;;;6.65;;
34978;SDS011;21185;50.978;13.720;2023-04-06T21:14:58;11.70;;;6.35;;
34978;SDS011;21185;50.978;13.720;2023-04-06T21:19:59;8.20;;;5.85;;
34978;SDS011;21185;50.978;13.720;2023-04-06T21:25:01;8.65;;;5.72;;
34978;SDS011;21185;50.978;13.720;2023-04-06T21:30:03;9.57;;;6.30;;
34978;SDS011;21185;50.978;13.720;2023-04-06T21:35:06;12.93;;;6.25;;
34978;SDS011;21185;50.978;13.720;2023-04-06T21:40:08;12.55;;;6.65;;
34978;SDS011;21185;50.978;13.720;2023-04-06T21:45:11;7.88;;;5.43;;
34978;SDS011;21185;50.978;13.720;2023-04-06T21:50:13;14.68;;;5.20;;
34978;SDS011;21185;50.978;13.720;2023-04-06T21:55:14;9.73;;;5.88;;
34978;SDS011;21185;50.978;13.720;2023-04-06T22:00:19;8.02;;;5.68;;
34978;SDS011;21185;50.978;13.720;2023-04-06T22:05:21;9.13;;;5.85;;
34978;SDS011;21185;50.978;13.720;2023-04-06T22:10:23;7.50;;;5.30;;
34978;SDS011;21185;50.978;13.720;2023-04-06T22:15:25;7.93;;;5.07;;
34978;SDS011;21185;50.978;13.720;2023-04-06T22:20:27;8.93;;;4.90;;
34978;SDS011;21185;50.978;13.720;2023-04-06T22:25:30;9.73;;;4.78;;
34978;SDS011;21185;50.978;13.720;2023-04-06T22:30:32;8.23;;;5.00;;
34978;SDS011;21185;50.978;13.720;2023-04-06T22:35:34;6.95;;;4.32;;
34978;SDS011;21185;50.978;13.720;2023-04-06T22:40:36;8.20;;;4.20;;
34978;SDS011;21185;50.978;13.720;2023-04-06T22:45:38;10.32;;;4.70;;
34978;SDS011;21185;50.978;13.720;2023-04-06T22:50:40;8.00;;;4.75;;
34978;SDS011;21185;50.978;13.720;2023-04-06T22:55:42;7.22;;;4.57;;
34978;SDS011;21185;50.978;13.720;2023-04-06T23:00:44;6.13;;;3.50;;
34978;SDS011;21185;50.978;13.720;2023-04-06T23:05:45;6.45;;;4.07;;
34978;SDS011;21185;50.978;13.720;2023-04-06T23:10:49;7.97;;;4.05;;
34978;SDS011;21185;50.978;13.720;2023-04-06T23:15:51;5.18;;;3.58;;
34978;SDS011;21185;50.978;13.720;2023-04-06T23:20:56;7.30;;;4.40;;
34978;SDS011;21185;50.978;13.720;2023-04-06T23:25:57;7.20;;;4.30;;
34978;SDS011;21185;50.978;13.720;2023-04-06T23:30:59;6.75;;;4.03;;
34978;SDS011;21185;50.978;13.720;2023-04-06T23:36:01;8.85;;;4.93;;
34978;SDS011;21185;50.978;13.720;2023-04-06T23:41:03;6.60;;;4.00;;
34978;SDS011;21185;50.978;13.720;2023-04-06T23:46:05;5.93;;;4.13;;
34978;SDS011;21185;50.978;13.720;2023-04-06T23:51:09;7.53;;;4.38;;
34978;SDS011;21185;50.978;13.720;2023-04-06T23:56:11;7.13;;;3.78;;
